createdAt,value
2023-01-01T00:02:07.970Z,218.27
2023-01-01T00:04:34.980Z,196.70
2023-01-01T00:07:01.950Z,210.35
2023-01-01T00:09:47.397Z,223.48
2023-01-01T00:12:14.347Z,204.43
2023-01-01T00:14:43.949Z,226.18
2023-01-01T00:17:11.288Z,216.60
2023-01-01T00:19:38.688Z,193.15
2023-01-01T00:22:27.782Z,204.75
2023-01-01T00:24:52.598Z,168.90
2023-01-01T00:27:19.642Z,151.20
2023-01-01T00:29:47.021Z,158.32
2023-01-01T00:32:17.688Z,158.10
2023-01-01T00:34:49.289Z,131.35
2023-01-01T00:37:18.335Z,110.93
2023-01-01T00:39:45.477Z,120.13
2023-01-01T00:42:12.508Z,109.18
2023-01-01T00:44:39.425Z,94.72
2023-01-01T00:47:06.420Z,108.90
2023-01-01T00:49:33.407Z,106.32
2023-01-01T00:52:00.356Z,101.00
2023-01-01T00:54:27.287Z,86.60
2023-01-01T00:56:54.237Z,94.70
2023-01-01T00:59:26.816Z,84.35
2023-01-01T01:01:55.686Z,90.13
2023-01-01T01:04:22.815Z,82.10
2023-01-01T01:06:49.761Z,80.28
2023-01-01T01:09:16.686Z,84.47
2023-01-01T01:11:43.624Z,87.93
2023-01-01T01:14:10.574Z,65.00
2023-01-01T01:16:37.589Z,60.55
2023-01-01T01:19:05.092Z,58.08
2023-01-01T01:21:33.126Z,62.17
2023-01-01T01:24:00.882Z,60.33
2023-01-01T01:26:32.109Z,57.30
2023-01-01T01:28:59.403Z,61.85
2023-01-01T01:31:28.432Z,55.65
2023-01-01T01:33:55.340Z,58.47
2023-01-01T01:36:22.339Z,64.03
2023-01-01T01:38:49.504Z,60.20
2023-01-01T01:41:27.391Z,57.95
2023-01-01T01:44:00.685Z,56.83
2023-01-01T01:46:36.573Z,53.85
2023-01-01T01:49:17.870Z,60.95
2023-01-01T01:51:44.889Z,60.72
2023-01-01T01:54:14.556Z,56.03
2023-01-01T01:56:54.062Z,53.90
2023-01-01T01:59:21.108Z,58.40
2023-01-01T02:01:48.401Z,50.30
2023-01-01T02:04:15.437Z,42.85
2023-01-01T02:06:42.445Z,44.00
2023-01-01T02:09:09.462Z,43.97
2023-01-01T02:11:36.517Z,41.30
2023-01-01T02:14:03.594Z,46.08
2023-01-01T02:17:23.137Z,39.83
2023-01-01T02:20:02.065Z,41.28
2023-01-01T02:23:10.866Z,39.15
2023-01-01T02:25:51.820Z,46.55
2023-01-01T02:28:43.446Z,50.53
2023-01-01T02:31:11.893Z,44.28
2023-01-01T02:33:39.355Z,45.85
2023-01-01T02:36:06.507Z,40.80
2023-01-01T02:38:35.468Z,40.30
2023-01-01T02:41:04.349Z,35.00
2023-01-01T02:43:31.302Z,35.85
2023-01-01T02:45:58.287Z,36.65
2023-01-01T02:48:37.349Z,44.30
2023-01-01T02:51:09.478Z,37.28
2023-01-01T02:53:37.453Z,36.33
2023-01-01T02:56:36.359Z,36.67
2023-01-01T02:59:38.519Z,37.33
2023-01-01T03:02:11.599Z,35.15
2023-01-01T03:04:57.625Z,28.63
2023-01-01T03:07:33.260Z,29.88
2023-01-01T03:10:45.238Z,27.70
2023-01-01T03:13:33.441Z,26.63
2023-01-01T03:16:09.459Z,29.13
2023-01-01T03:18:44.657Z,27.45
2023-01-01T03:23:50.141Z,29.27
2023-01-01T03:26:17.261Z,29.80
2023-01-01T03:28:46.732Z,30.15
2023-01-01T03:31:15.277Z,31.55
2023-01-01T03:33:45.107Z,27.60
2023-01-01T03:36:20.581Z,30.02
2023-01-01T03:38:58.836Z,30.90
2023-01-01T03:41:28.725Z,28.90
2023-01-01T03:44:09.498Z,28.33
2023-01-01T03:46:36.617Z,31.15
2023-01-01T03:49:05.939Z,34.03
2023-01-01T03:51:44.753Z,33.33
2023-01-01T03:54:18.487Z,31.33
2023-01-01T03:56:47.092Z,31.33
2023-01-01T03:59:22.422Z,31.67
2023-01-01T04:01:53.851Z,28.30
2023-01-01T04:04:20.880Z,29.88
2023-01-01T04:06:47.847Z,31.58
2023-01-01T04:09:18.994Z,28.67
2023-01-01T04:14:39.452Z,27.25
2023-01-01T04:17:07.339Z,26.33
2023-01-01T04:19:34.279Z,27.30
2023-01-01T04:22:01.639Z,27.63
2023-01-01T04:24:29.007Z,24.85
2023-01-01T04:26:56.091Z,24.52
2023-01-01T04:29:23.134Z,23.30
2023-01-01T04:31:50.189Z,25.17
2023-01-01T04:34:17.223Z,23.90
2023-01-01T04:36:44.152Z,27.13
2023-01-01T04:39:11.109Z,27.33
2023-01-01T04:41:38.063Z,26.63
2023-01-01T04:44:05.305Z,27.63
2023-01-01T04:46:32.250Z,26.38
2023-01-01T04:48:59.266Z,25.23
2023-01-01T04:51:26.236Z,26.38
2023-01-01T04:53:53.221Z,27.92
2023-01-01T04:56:21.226Z,24.73
2023-01-01T04:58:48.312Z,27.38
2023-01-01T05:01:24.572Z,28.67
2023-01-01T05:03:51.728Z,25.98
2023-01-01T05:06:20.135Z,29.42
2023-01-01T05:08:48.124Z,27.17
2023-01-01T05:11:19.216Z,27.50
2023-01-01T05:13:47.674Z,28.23
2023-01-01T05:16:16.133Z,28.90
2023-01-01T05:18:43.323Z,27.63
2023-01-01T05:21:15.059Z,24.15
2023-01-01T05:23:42.203Z,26.55
2023-01-01T05:26:16.151Z,22.70
2023-01-01T05:28:43.052Z,23.55
2023-01-01T05:31:12.972Z,24.10
2023-01-01T05:33:40.083Z,22.05
2023-01-01T05:36:12.472Z,26.45
2023-01-01T05:38:39.539Z,23.33
2023-01-01T05:41:09.785Z,24.52
2023-01-01T05:43:36.879Z,25.52
2023-01-01T05:46:08.540Z,20.00
2023-01-01T05:48:38.878Z,20.48
2023-01-01T05:51:06.987Z,24.90
2023-01-01T05:53:34.026Z,23.65
2023-01-01T05:56:01.170Z,24.63
2023-01-01T05:58:28.613Z,27.15
2023-01-01T06:00:55.635Z,24.10
2023-01-01T06:03:22.655Z,26.63
2023-01-01T06:05:49.549Z,24.05
2023-01-01T06:08:16.470Z,22.83
2023-01-01T06:10:43.409Z,22.88
2023-01-01T06:13:13.455Z,22.02
2023-01-01T06:15:40.606Z,25.92
2023-01-01T06:18:07.796Z,29.50
2023-01-01T06:20:34.696Z,27.00
2023-01-01T06:23:01.631Z,27.65
2023-01-01T06:25:28.526Z,27.35
2023-01-01T06:27:55.511Z,26.70
2023-01-01T06:30:22.471Z,22.63
2023-01-01T06:32:49.393Z,24.55
2023-01-01T06:35:16.441Z,25.42
2023-01-01T06:37:43.350Z,25.88
2023-01-01T06:40:10.608Z,25.05
2023-01-01T06:42:38.375Z,26.30
2023-01-01T06:45:05.646Z,24.00
2023-01-01T06:47:35.627Z,24.63
2023-01-01T06:50:04.079Z,25.58
2023-01-01T06:52:31.023Z,24.95
2023-01-01T06:54:58.000Z,22.83
2023-01-01T06:57:25.130Z,26.63
2023-01-01T06:59:52.110Z,22.95
2023-01-01T07:02:19.259Z,25.10
2023-01-01T07:04:46.389Z,26.42
2023-01-01T07:07:13.301Z,27.58
2023-01-01T07:09:40.259Z,27.73
2023-01-01T07:12:07.431Z,24.95
2023-01-01T07:14:34.383Z,26.00
2023-01-01T07:17:01.316Z,24.98
2023-01-01T07:19:28.364Z,26.00
2023-01-01T07:21:55.500Z,27.90
2023-01-01T07:24:22.560Z,27.80
2023-01-01T07:26:50.156Z,25.70
2023-01-01T07:29:17.325Z,28.23
2023-01-01T07:31:44.432Z,26.88
2023-01-01T07:34:13.872Z,26.23
2023-01-01T07:36:42.476Z,27.25
2023-01-01T07:39:09.797Z,27.17
2023-01-01T07:41:36.871Z,25.75
2023-01-01T07:44:04.076Z,24.23
2023-01-01T07:46:31.082Z,23.55
2023-01-01T07:48:58.516Z,23.20
2023-01-01T07:51:25.687Z,26.20
2023-01-01T07:53:52.754Z,23.92
2023-01-01T07:56:19.677Z,22.65
2023-01-01T07:58:46.791Z,26.95
2023-01-01T08:01:14.879Z,23.45
2023-01-01T08:03:42.888Z,25.92
2023-01-01T08:06:10.933Z,24.02
2023-01-01T08:08:38.218Z,24.98
2023-01-01T08:11:05.492Z,22.75
2023-01-01T08:13:32.453Z,23.98
2023-01-01T08:15:59.447Z,24.27
2023-01-01T08:18:26.537Z,20.08
2023-01-01T08:20:54.352Z,20.90
2023-01-01T08:23:21.423Z,23.13
2023-01-01T08:25:48.371Z,26.48
2023-01-01T08:28:15.283Z,23.55
2023-01-01T08:30:42.325Z,23.25
2023-01-01T08:33:09.229Z,22.83
2023-01-01T08:35:36.561Z,22.80
2023-01-01T08:38:03.498Z,23.70
2023-01-01T08:40:30.522Z,26.80
2023-01-01T08:42:57.586Z,26.92
2023-01-01T08:45:24.781Z,26.25
2023-01-01T08:47:51.710Z,26.42
2023-01-01T08:50:18.735Z,26.30
2023-01-01T08:52:45.714Z,28.90
2023-01-01T08:55:12.673Z,29.88
2023-01-01T08:57:39.578Z,28.15
2023-01-01T09:00:09.773Z,26.42
2023-01-01T09:02:36.914Z,33.85
2023-01-01T09:05:04.147Z,28.52
2023-01-01T09:07:31.150Z,33.08
2023-01-01T09:09:58.253Z,29.45
2023-01-01T09:12:25.138Z,27.25
2023-01-01T09:14:52.109Z,25.13
2023-01-01T09:17:19.079Z,27.90
2023-01-01T09:19:46.173Z,27.40
2023-01-01T09:22:13.281Z,27.15
2023-01-01T09:24:40.312Z,25.02
2023-01-01T09:27:07.245Z,23.25
2023-01-01T09:29:34.252Z,23.83
2023-01-01T09:32:01.350Z,21.08
2023-01-01T09:34:28.387Z,14.88
2023-01-01T09:36:55.334Z,13.50
2023-01-01T09:39:22.571Z,11.63
2023-01-01T09:41:54.456Z,9.20
2023-01-01T09:45:02.191Z,8.57
2023-01-01T09:47:43.030Z,8.02
2023-01-01T09:50:14.338Z,7.30
2023-01-01T09:52:58.345Z,7.03
2023-01-01T09:55:26.432Z,7.50
2023-01-01T09:57:54.511Z,6.55
2023-01-01T10:00:21.597Z,6.22
2023-01-01T10:02:53.457Z,6.25
2023-01-01T10:05:29.983Z,6.07
2023-01-01T10:08:10.718Z,6.45
2023-01-01T10:11:08.573Z,5.93
2023-01-01T10:13:42.942Z,4.95
2023-01-01T10:16:13.351Z,5.63
2023-01-01T10:18:40.969Z,5.75
2023-01-01T10:21:13.726Z,5.55
2023-01-01T10:23:43.805Z,5.50
2023-01-01T10:26:17.359Z,6.07
2023-01-01T10:29:05.082Z,5.50
2023-01-01T10:31:51.012Z,5.50
2023-01-01T10:34:26.176Z,5.93
2023-01-01T10:36:57.013Z,5.50
2023-01-01T10:39:24.105Z,5.78
2023-01-01T10:41:51.037Z,6.22
2023-01-01T10:44:34.258Z,6.78
2023-01-01T10:47:25.905Z,6.38
2023-01-01T10:50:05.268Z,6.82
2023-01-01T10:52:37.476Z,6.22
2023-01-01T10:55:05.269Z,6.10
2023-01-01T10:57:32.474Z,6.80
2023-01-01T11:00:22.609Z,6.93
2023-01-01T11:03:14.072Z,6.07
2023-01-01T11:05:41.008Z,6.47
2023-01-01T11:08:19.011Z,5.60
2023-01-01T11:10:50.756Z,5.82
2023-01-01T11:13:19.303Z,6.45
2023-01-01T11:15:46.188Z,5.50
2023-01-01T11:18:23.662Z,5.10
2023-01-01T11:20:57.567Z,6.00
2023-01-01T11:23:31.739Z,6.20
2023-01-01T11:26:04.869Z,5.65
2023-01-01T11:28:34.477Z,6.30
2023-01-01T11:31:21.343Z,5.65
2023-01-01T11:33:50.387Z,5.45
2023-01-01T11:36:30.493Z,5.97
2023-01-01T11:39:27.096Z,5.10
2023-01-01T11:41:55.844Z,5.25
2023-01-01T11:44:46.844Z,5.85
2023-01-01T11:47:29.929Z,5.18
2023-01-01T11:50:11.835Z,5.07
2023-01-01T11:52:40.612Z,4.85
2023-01-01T11:55:27.563Z,4.90
2023-01-01T11:57:59.799Z,4.78
2023-01-01T12:00:26.822Z,4.60
2023-01-01T12:03:00.893Z,4.80
2023-01-01T12:05:41.311Z,4.63
2023-01-01T12:08:09.409Z,4.18
2023-01-01T12:10:57.744Z,4.53
2023-01-01T12:13:30.284Z,4.45
2023-01-01T12:16:09.582Z,4.30
2023-01-01T12:18:51.238Z,4.85
2023-01-01T12:21:25.219Z,4.72
2023-01-01T12:23:52.189Z,4.72
2023-01-01T12:26:22.144Z,4.78
2023-01-01T12:29:04.341Z,4.53
2023-01-01T12:31:52.864Z,4.43
2023-01-01T12:34:41.733Z,4.78
2023-01-01T12:37:11.230Z,4.50
2023-01-01T12:40:00.203Z,4.35
2023-01-01T12:42:33.298Z,5.03
2023-01-01T12:45:06.005Z,4.47
2023-01-01T12:47:35.695Z,5.30
2023-01-01T12:50:04.638Z,4.30
2023-01-01T12:53:06.433Z,4.50
2023-01-01T12:55:47.109Z,5.13
2023-01-01T12:58:37.253Z,4.57
2023-01-01T13:01:22.976Z,5.43
2023-01-01T13:03:59.326Z,4.53
2023-01-01T13:06:34.321Z,4.60
2023-01-01T13:09:08.297Z,4.32
2023-01-01T13:11:39.772Z,4.95
2023-01-01T13:14:10.047Z,3.97
2023-01-01T13:16:45.824Z,4.18
2023-01-01T13:19:45.468Z,4.68
2023-01-01T13:22:27.456Z,4.60
2023-01-01T13:25:09.317Z,4.95
2023-01-01T13:28:02.791Z,4.57
2023-01-01T13:30:35.532Z,5.43
2023-01-01T13:33:32.122Z,4.85
2023-01-01T13:36:14.285Z,5.60
2023-01-01T13:38:54.438Z,5.38
2023-01-01T13:41:35.779Z,4.30
2023-01-01T13:44:05.553Z,5.57
2023-01-01T13:46:41.893Z,5.18
2023-01-01T13:49:27.331Z,5.03
2023-01-01T13:52:07.021Z,4.43
2023-01-01T13:54:56.886Z,4.80
2023-01-01T13:57:39.312Z,4.78
2023-01-01T14:00:22.931Z,5.15
2023-01-01T14:03:00.635Z,4.75
2023-01-01T14:05:38.656Z,4.57
2023-01-01T14:08:11.482Z,4.15
2023-01-01T14:10:40.188Z,4.28
2023-01-01T14:13:07.466Z,5.38
2023-01-01T14:15:34.871Z,4.75
2023-01-01T14:18:06.065Z,5.22
2023-01-01T14:20:53.185Z,5.28
2023-01-01T14:23:33.587Z,5.57
2023-01-01T14:26:00.982Z,5.07
2023-01-01T14:28:29.623Z,5.40
2023-01-01T14:30:56.563Z,4.88
2023-01-01T14:33:30.382Z,5.63
2023-01-01T14:35:58.777Z,5.32
2023-01-01T14:38:30.679Z,5.45
2023-01-01T14:41:07.086Z,5.50
2023-01-01T14:43:38.894Z,5.78
2023-01-01T14:46:11.104Z,4.97
2023-01-01T14:48:38.394Z,6.00
2023-01-01T14:51:05.422Z,5.78
2023-01-01T14:53:33.317Z,5.63
2023-01-01T14:56:00.352Z,5.38
2023-01-01T14:58:28.121Z,4.80
2023-01-01T15:00:56.673Z,5.32
2023-01-01T15:03:24.295Z,5.65
2023-01-01T15:06:03.303Z,5.10
2023-01-01T15:08:30.277Z,5.63
2023-01-01T15:10:57.195Z,5.35
2023-01-01T15:13:27.751Z,5.13
2023-01-01T15:15:56.174Z,5.68
2023-01-01T15:18:50.567Z,5.50
2023-01-01T15:21:41.293Z,4.28
2023-01-01T15:24:16.127Z,5.30
2023-01-01T15:26:45.337Z,4.68
2023-01-01T15:29:16.740Z,4.55
2023-01-01T15:31:46.570Z,4.85
2023-01-01T15:34:27.847Z,4.57
2023-01-01T15:36:55.591Z,4.72
2023-01-01T15:39:22.619Z,5.38
2023-01-01T15:41:50.899Z,4.75
2023-01-01T15:44:35.309Z,5.00
2023-01-01T15:47:26.336Z,5.68
2023-01-01T15:50:17.797Z,7.07
2023-01-01T15:52:45.705Z,8.52
2023-01-01T15:55:15.894Z,6.93
2023-01-01T15:57:49.280Z,7.88
2023-01-01T16:00:19.679Z,6.53
2023-01-01T16:02:47.018Z,6.45
2023-01-01T16:05:17.430Z,4.88
2023-01-01T16:07:44.472Z,5.07
2023-01-01T16:10:16.142Z,4.90
2023-01-01T16:12:43.163Z,5.22
2023-01-01T16:15:15.082Z,4.80
2023-01-01T16:17:43.159Z,6.57
2023-01-01T16:20:14.258Z,5.97
2023-01-01T16:22:41.237Z,6.40
2023-01-01T16:25:15.133Z,5.72
2023-01-01T16:27:42.695Z,5.97
2023-01-01T16:30:10.414Z,6.65
2023-01-01T16:32:37.512Z,6.00
2023-01-01T16:35:11.547Z,6.50
2023-01-01T16:37:40.189Z,6.35
2023-01-01T16:40:08.332Z,6.20
2023-01-01T16:42:35.305Z,4.57
2023-01-01T16:45:02.318Z,4.80
2023-01-01T16:47:30.052Z,4.15
2023-01-01T16:49:57.742Z,4.38
2023-01-01T16:52:28.719Z,3.53
2023-01-01T16:54:58.467Z,3.13
2023-01-01T16:57:25.524Z,3.00
2023-01-01T16:59:52.633Z,3.45
2023-01-01T17:02:20.095Z,3.05
2023-01-01T17:04:48.162Z,3.05
2023-01-01T17:07:15.305Z,12.20
2023-01-01T17:09:42.746Z,9.30
2023-01-01T17:12:09.825Z,10.48
2023-01-01T17:14:36.793Z,6.82
2023-01-01T17:17:03.714Z,8.40
2023-01-01T17:19:30.745Z,11.68
2023-01-01T17:21:57.746Z,11.40
2023-01-01T17:24:24.967Z,13.95
2023-01-01T17:26:53.058Z,13.35
2023-01-01T17:29:20.846Z,11.32
2023-01-01T17:31:47.887Z,10.20
2023-01-01T17:34:14.965Z,9.10
2023-01-01T17:36:42.644Z,10.38
